Terminal Aerodrome Forecast
Issued by NWS Melbourne, FL

Home | Current Version | Previous Version | Text Only | Print | Product List | Glossary On
Versions: 1 2 3 4 5 6 7 8 9 10 11 12 13 14 15 16 17 18 19 20 21
284
FTUS42 KMLB 280520
TAFVRB
TAF
KVRB 280520Z 2806/2906 23004KT P6SM SKC
      TEMPO 2806/2810 5SM BR
     FM281000 27005KT P6SM FEW006
      TEMPO 2810/2812 3SM BR
     FM281400 27007KT P6SM SKC
     FM281900 10010KT P6SM SKC
     FM290000 15009KT P6SM SKC=

USA.gov is the U.S. government's official web portal to all federal, state and local government web resources and services.